sensor_id;sensor_type;location;lat;lon;timestamp;P1;durP1;ratioP1;P2;durP2;ratioP2
8652;SDS011;4364;52.426;9.424;2023-04-24T00:00:59;2.00;;;1.40;;
8652;SDS011;4364;52.426;9.424;2023-04-24T00:03:27;1.27;;;1.17;;
8652;SDS011;4364;52.426;9.424;2023-04-24T00:05:54;1.47;;;1.30;;
8652;SDS011;4364;52.426;9.424;2023-04-24T00:08:21;1.70;;;1.43;;
8652;SDS011;4364;52.426;9.424;2023-04-24T00:10:48;1.40;;;1.30;;
8652;SDS011;4364;52.426;9.424;2023-04-24T00:13:15;1.37;;;1.23;;
8652;SDS011;4364;52.426;9.424;2023-04-24T00:15:41;2.13;;;1.27;;
8652;SDS011;4364;52.426;9.424;2023-04-24T00:18:08;2.13;;;1.30;;
8652;SDS011;4364;52.426;9.424;2023-04-24T00:20:34;1.53;;;1.33;;
8652;SDS011;4364;52.426;9.424;2023-04-24T00:23:03;1.73;;;1.43;;
8652;SDS011;4364;52.426;9.424;2023-04-24T00:25:30;1.80;;;1.30;;
8652;SDS011;4364;52.426;9.424;2023-04-24T00:27:56;1.70;;;1.40;;
8652;SDS011;4364;52.426;9.424;2023-04-24T00:30:23;1.60;;;1.20;;
8652;SDS011;4364;52.426;9.424;2023-04-24T00:32:49;2.03;;;1.40;;
8652;SDS011;4364;52.426;9.424;2023-04-24T00:35:16;1.93;;;1.40;;
8652;SDS011;4364;52.426;9.424;2023-04-24T00:37:42;3.03;;;1.37;;
8652;SDS011;4364;52.426;9.424;2023-04-24T00:40:09;1.80;;;1.40;;
8652;SDS011;4364;52.426;9.424;2023-04-24T00:42:36;1.73;;;1.20;;
8652;SDS011;4364;52.426;9.424;2023-04-24T00:45:03;1.67;;;1.40;;
8652;SDS011;4364;52.426;9.424;2023-04-24T00:47:31;1.90;;;1.60;;
8652;SDS011;4364;52.426;9.424;2023-04-24T00:50:03;1.73;;;1.50;;
8652;SDS011;4364;52.426;9.424;2023-04-24T00:52:30;2.23;;;1.40;;
8652;SDS011;4364;52.426;9.424;2023-04-24T00:54:58;2.07;;;1.50;;
8652;SDS011;4364;52.426;9.424;2023-04-24T00:57:26;2.07;;;1.60;;
8652;SDS011;4364;52.426;9.424;2023-04-24T00:59:53;3.63;;;1.53;;
8652;SDS011;4364;52.426;9.424;2023-04-24T01:02:20;1.70;;;1.37;;
8652;SDS011;4364;52.426;9.424;2023-04-24T01:04:49;1.47;;;1.27;;
8652;SDS011;4364;52.426;9.424;2023-04-24T01:07:20;1.60;;;1.50;;
8652;SDS011;4364;52.426;9.424;2023-04-24T01:09:50;1.80;;;1.30;;
8652;SDS011;4364;52.426;9.424;2023-04-24T01:12:18;1.50;;;1.20;;
8652;SDS011;4364;52.426;9.424;2023-04-24T01:14:45;2.40;;;1.30;;
8652;SDS011;4364;52.426;9.424;2023-04-24T01:17:14;1.13;;;1.03;;
8652;SDS011;4364;52.426;9.424;2023-04-24T01:19:41;1.47;;;1.23;;
8652;SDS011;4364;52.426;9.424;2023-04-24T01:22:14;1.93;;;1.00;;
8652;SDS011;4364;52.426;9.424;2023-04-24T01:24:42;1.50;;;1.08;;
8652;SDS011;4364;52.426;9.424;2023-04-24T01:27:11;1.43;;;1.10;;
8652;SDS011;4364;52.426;9.424;2023-04-24T01:29:38;2.00;;;1.10;;
8652;SDS011;4364;52.426;9.424;2023-04-24T01:32:05;1.30;;;1.00;;
8652;SDS011;4364;52.426;9.424;2023-04-24T01:34:32;1.10;;;1.00;;
8652;SDS011;4364;52.426;9.424;2023-04-24T01:37:00;1.20;;;1.07;;
8652;SDS011;4364;52.426;9.424;2023-04-24T01:39:27;1.00;;;0.87;;
8652;SDS011;4364;52.426;9.424;2023-04-24T01:41:55;1.20;;;1.10;;
8652;SDS011;4364;52.426;9.424;2023-04-24T01:44:22;0.90;;;0.90;;
8652;SDS011;4364;52.426;9.424;2023-04-24T01:46:49;2.87;;;0.90;;
8652;SDS011;4364;52.426;9.424;2023-04-24T01:49:15;0.90;;;0.90;;
8652;SDS011;4364;52.426;9.424;2023-04-24T01:51:43;1.53;;;1.20;;
8652;SDS011;4364;52.426;9.424;2023-04-24T01:54:11;2.03;;;1.10;;
8652;SDS011;4364;52.426;9.424;2023-04-24T01:56:40;1.17;;;1.07;;
8652;SDS011;4364;52.426;9.424;2023-04-24T01:59:10;0.93;;;0.93;;
8652;SDS011;4364;52.426;9.424;2023-04-24T02:01:37;1.23;;;1.00;;
8652;SDS011;4364;52.426;9.424;2023-04-24T02:04:04;2.23;;;1.00;;
8652;SDS011;4364;52.426;9.424;2023-04-24T02:06:34;1.20;;;1.10;;
8652;SDS011;4364;52.426;9.424;2023-04-24T02:09:01;1.63;;;1.20;;
8652;SDS011;4364;52.426;9.424;2023-04-24T02:11:29;1.50;;;1.30;;
8652;SDS011;4364;52.426;9.424;2023-04-24T02:13:56;1.20;;;1.10;;
8652;SDS011;4364;52.426;9.424;2023-04-24T02:16:23;1.30;;;1.20;;
8652;SDS011;4364;52.426;9.424;2023-04-24T02:18:49;2.37;;;1.40;;
8652;SDS011;4364;52.426;9.424;2023-04-24T02:21:16;2.67;;;1.50;;
8652;SDS011;4364;52.426;9.424;2023-04-24T02:23:42;1.50;;;1.40;;
8652;SDS011;4364;52.426;9.424;2023-04-24T02:26:11;2.00;;;1.63;;
8652;SDS011;4364;52.426;9.424;2023-04-24T02:28:38;2.47;;;1.70;;
8652;SDS011;4364;52.426;9.424;2023-04-24T02:31:04;1.97;;;1.50;;
8652;SDS011;4364;52.426;9.424;2023-04-24T02:33:32;1.60;;;1.50;;
8652;SDS011;4364;52.426;9.424;2023-04-24T02:35:59;1.87;;;1.57;;
8652;SDS011;4364;52.426;9.424;2023-04-24T02:38:26;1.60;;;1.50;;
8652;SDS011;4364;52.426;9.424;2023-04-24T02:40:52;1.73;;;1.40;;
8652;SDS011;4364;52.426;9.424;2023-04-24T02:43:19;1.60;;;1.50;;
8652;SDS011;4364;52.426;9.424;2023-04-24T02:45:46;2.03;;;1.60;;
8652;SDS011;4364;52.426;9.424;2023-04-24T02:48:13;1.20;;;1.10;;
8652;SDS011;4364;52.426;9.424;2023-04-24T02:50:39;4.90;;;1.40;;
8652;SDS011;4364;52.426;9.424;2023-04-24T02:53:06;1.27;;;1.17;;
8652;SDS011;4364;52.426;9.424;2023-04-24T02:55:32;1.27;;;1.17;;
8652;SDS011;4364;52.426;9.424;2023-04-24T02:57:59;1.87;;;1.40;;
8652;SDS011;4364;52.426;9.424;2023-04-24T03:00:26;1.53;;;1.20;;
8652;SDS011;4364;52.426;9.424;2023-04-24T03:02:53;1.20;;;1.10;;
8652;SDS011;4364;52.426;9.424;2023-04-24T03:05:19;2.37;;;1.10;;
8652;SDS011;4364;52.426;9.424;2023-04-24T03:07:46;1.83;;;1.30;;
8652;SDS011;4364;52.426;9.424;2023-04-24T03:10:13;1.63;;;1.10;;
8652;SDS011;4364;52.426;9.424;2023-04-24T03:12:40;2.00;;;1.10;;
8652;SDS011;4364;52.426;9.424;2023-04-24T03:15:07;1.17;;;1.07;;
8652;SDS011;4364;52.426;9.424;2023-04-24T03:17:35;1.97;;;1.40;;
8652;SDS011;4364;52.426;9.424;2023-04-24T03:20:03;1.60;;;1.20;;
8652;SDS011;4364;52.426;9.424;2023-04-24T03:22:31;1.70;;;1.20;;
8652;SDS011;4364;52.426;9.424;2023-04-24T03:25:00;1.67;;;1.30;;
8652;SDS011;4364;52.426;9.424;2023-04-24T03:27:27;1.30;;;1.20;;
8652;SDS011;4364;52.426;9.424;2023-04-24T03:29:58;2.10;;;1.20;;
8652;SDS011;4364;52.426;9.424;2023-04-24T03:32:33;1.77;;;1.13;;
8652;SDS011;4364;52.426;9.424;2023-04-24T03:35:00;3.40;;;1.60;;
8652;SDS011;4364;52.426;9.424;2023-04-24T03:37:27;1.70;;;1.60;;
8652;SDS011;4364;52.426;9.424;2023-04-24T03:40:07;1.90;;;1.40;;
8652;SDS011;4364;52.426;9.424;2023-04-24T03:42:35;1.50;;;1.40;;
8652;SDS011;4364;52.426;9.424;2023-04-24T03:45:05;3.23;;;1.47;;
8652;SDS011;4364;52.426;9.424;2023-04-24T03:47:34;2.63;;;1.50;;
8652;SDS011;4364;52.426;9.424;2023-04-24T03:50:04;1.97;;;1.50;;
8652;SDS011;4364;52.426;9.424;2023-04-24T03:52:32;1.60;;;1.50;;
8652;SDS011;4364;52.426;9.424;2023-04-24T03:54:59;2.40;;;1.60;;
8652;SDS011;4364;52.426;9.424;2023-04-24T03:57:28;1.47;;;1.37;;
8652;SDS011;4364;52.426;9.424;2023-04-24T04:00:09;1.50;;;1.40;;
8652;SDS011;4364;52.426;9.424;2023-04-24T04:02:39;1.93;;;1.50;;
8652;SDS011;4364;52.426;9.424;2023-04-24T04:05:07;2.47;;;1.60;;
8652;SDS011;4364;52.426;9.424;2023-04-24T04:07:34;2.30;;;1.50;;
8652;SDS011;4364;52.426;9.424;2023-04-24T04:10:01;2.00;;;1.60;;
8652;SDS011;4364;52.426;9.424;2023-04-24T04:12:28;2.17;;;1.50;;
8652;SDS011;4364;52.426;9.424;2023-04-24T04:14:54;1.70;;;1.50;;
8652;SDS011;4364;52.426;9.424;2023-04-24T04:17:21;2.03;;;1.50;;
8652;SDS011;4364;52.426;9.424;2023-04-24T04:19:48;2.17;;;1.63;;
8652;SDS011;4364;52.426;9.424;2023-04-24T04:22:14;4.13;;;1.60;;
8652;SDS011;4364;52.426;9.424;2023-04-24T04:24:44;1.47;;;1.30;;
8652;SDS011;4364;52.426;9.424;2023-04-24T04:27:12;2.47;;;1.57;;
8652;SDS011;4364;52.426;9.424;2023-04-24T04:29:46;4.33;;;2.23;;
8652;SDS011;4364;52.426;9.424;2023-04-24T04:32:14;1.57;;;1.40;;
8652;SDS011;4364;52.426;9.424;2023-04-24T04:34:42;1.40;;;1.30;;
8652;SDS011;4364;52.426;9.424;2023-04-24T04:37:10;2.30;;;1.47;;
8652;SDS011;4364;52.426;9.424;2023-04-24T04:39:57;1.50;;;1.37;;
8652;SDS011;4364;52.426;9.424;2023-04-24T04:42:33;2.03;;;1.30;;
8652;SDS011;4364;52.426;9.424;2023-04-24T04:45:09;2.00;;;1.43;;
8652;SDS011;4364;52.426;9.424;2023-04-24T04:47:50;1.97;;;1.20;;
8652;SDS011;4364;52.426;9.424;2023-04-24T04:50:17;2.30;;;1.30;;
8652;SDS011;4364;52.426;9.424;2023-04-24T04:52:47;2.90;;;1.30;;
8652;SDS011;4364;52.426;9.424;2023-04-24T04:55:22;1.80;;;1.20;;
8652;SDS011;4364;52.426;9.424;2023-04-24T04:58:24;3.50;;;1.37;;
8652;SDS011;4364;52.426;9.424;2023-04-24T05:00:54;1.50;;;1.23;;
8652;SDS011;4364;52.426;9.424;2023-04-24T05:03:26;4.07;;;1.50;;
8652;SDS011;4364;52.426;9.424;2023-04-24T05:06:01;1.20;;;1.10;;
8652;SDS011;4364;52.426;9.424;2023-04-24T05:08:31;1.57;;;1.20;;
8652;SDS011;4364;52.426;9.424;2023-04-24T05:10:58;1.93;;;1.40;;
8652;SDS011;4364;52.426;9.424;2023-04-24T05:13:27;1.37;;;1.20;;
8652;SDS011;4364;52.426;9.424;2023-04-24T05:16:14;1.87;;;1.20;;
8652;SDS011;4364;52.426;9.424;2023-04-24T05:18:41;1.70;;;1.50;;
8652;SDS011;4364;52.426;9.424;2023-04-24T05:21:10;1.47;;;1.17;;
8652;SDS011;4364;52.426;9.424;2023-04-24T05:23:39;1.50;;;1.40;;
8652;SDS011;4364;52.426;9.424;2023-04-24T05:26:05;3.47;;;1.50;;
8652;SDS011;4364;52.426;9.424;2023-04-24T05:28:33;1.50;;;1.30;;
8652;SDS011;4364;52.426;9.424;2023-04-24T05:31:06;1.63;;;1.30;;
8652;SDS011;4364;52.426;9.424;2023-04-24T05:33:34;1.93;;;1.27;;
8652;SDS011;4364;52.426;9.424;2023-04-24T05:36:00;2.27;;;1.50;;
8652;SDS011;4364;52.426;9.424;2023-04-24T05:38:27;2.20;;;1.37;;
8652;SDS011;4364;52.426;9.424;2023-04-24T05:40:54;1.53;;;1.43;;
8652;SDS011;4364;52.426;9.424;2023-04-24T05:43:20;1.60;;;1.50;;
8652;SDS011;4364;52.426;9.424;2023-04-24T05:45:47;3.17;;;1.40;;
8652;SDS011;4364;52.426;9.424;2023-04-24T05:48:13;1.80;;;1.43;;
8652;SDS011;4364;52.426;9.424;2023-04-24T05:50:40;2.33;;;1.60;;
8652;SDS011;4364;52.426;9.424;2023-04-24T05:53:06;1.70;;;1.53;;
8652;SDS011;4364;52.426;9.424;2023-04-24T05:55:35;2.53;;;1.50;;
8652;SDS011;4364;52.426;9.424;2023-04-24T05:58:02;2.00;;;1.83;;
8652;SDS011;4364;52.426;9.424;2023-04-24T06:00:29;2.33;;;1.87;;
8652;SDS011;4364;52.426;9.424;2023-04-24T06:03:03;2.20;;;1.80;;
8652;SDS011;4364;52.426;9.424;2023-04-24T06:05:30;4.97;;;3.10;;
8652;SDS011;4364;52.426;9.424;2023-04-24T06:07:57;2.63;;;2.40;;
8652;SDS011;4364;52.426;9.424;2023-04-24T06:10:28;2.60;;;2.10;;
8652;SDS011;4364;52.426;9.424;2023-04-24T06:12:55;2.93;;;2.40;;
8652;SDS011;4364;52.426;9.424;2023-04-24T06:15:29;2.80;;;2.50;;
8652;SDS011;4364;52.426;9.424;2023-04-24T06:18:02;3.77;;;2.90;;
8652;SDS011;4364;52.426;9.424;2023-04-24T06:20:29;3.77;;;3.37;;
8652;SDS011;4364;52.426;9.424;2023-04-24T06:22:56;4.63;;;3.83;;
8652;SDS011;4364;52.426;9.424;2023-04-24T06:25:24;5.83;;;3.77;;
8652;SDS011;4364;52.426;9.424;2023-04-24T06:27:52;6.83;;;6.13;;
8652;SDS011;4364;52.426;9.424;2023-04-24T06:30:19;8.00;;;6.27;;
8652;SDS011;4364;52.426;9.424;2023-04-24T06:32:45;7.53;;;6.73;;
8652;SDS011;4364;52.426;9.424;2023-04-24T06:35:14;8.00;;;6.40;;
8652;SDS011;4364;52.426;9.424;2023-04-24T06:37:41;8.27;;;6.53;;
8652;SDS011;4364;52.426;9.424;2023-04-24T06:40:08;10.00;;;7.03;;
8652;SDS011;4364;52.426;9.424;2023-04-24T06:42:35;8.73;;;6.67;;
8652;SDS011;4364;52.426;9.424;2023-04-24T06:45:02;7.87;;;7.07;;
8652;SDS011;4364;52.426;9.424;2023-04-24T06:47:29;7.87;;;6.80;;
8652;SDS011;4364;52.426;9.424;2023-04-24T06:49:56;7.83;;;6.70;;
8652;SDS011;4364;52.426;9.424;2023-04-24T06:52:23;9.13;;;7.10;;
8652;SDS011;4364;52.426;9.424;2023-04-24T06:54:49;8.17;;;6.90;;
8652;SDS011;4364;52.426;9.424;2023-04-24T06:57:17;8.00;;;6.80;;
8652;SDS011;4364;52.426;9.424;2023-04-24T06:59:44;15.73;;;8.00;;
8652;SDS011;4364;52.426;9.424;2023-04-24T07:02:11;10.67;;;7.90;;
8652;SDS011;4364;52.426;9.424;2023-04-24T07:04:37;8.47;;;7.40;;
8652;SDS011;4364;52.426;9.424;2023-04-24T07:07:04;9.63;;;7.20;;
8652;SDS011;4364;52.426;9.424;2023-04-24T07:09:32;8.70;;;7.10;;
8652;SDS011;4364;52.426;9.424;2023-04-24T07:11:58;10.60;;;7.63;;
8652;SDS011;4364;52.426;9.424;2023-04-24T07:14:24;10.90;;;7.73;;
8652;SDS011;4364;52.426;9.424;2023-04-24T07:16:51;9.87;;;7.50;;
8652;SDS011;4364;52.426;9.424;2023-04-24T07:19:18;9.17;;;7.83;;
8652;SDS011;4364;52.426;9.424;2023-04-24T07:21:44;9.93;;;7.80;;
8652;SDS011;4364;52.426;9.424;2023-04-24T07:24:11;8.83;;;6.87;;
8652;SDS011;4364;52.426;9.424;2023-04-24T07:26:39;11.13;;;8.13;;
8652;SDS011;4364;52.426;9.424;2023-04-24T07:29:06;9.47;;;7.47;;
8652;SDS011;4364;52.426;9.424;2023-04-24T07:31:33;9.33;;;7.87;;
8652;SDS011;4364;52.426;9.424;2023-04-24T07:34:01;10.90;;;8.10;;
8652;SDS011;4364;52.426;9.424;2023-04-24T07:36:27;11.77;;;8.20;;
8652;SDS011;4364;52.426;9.424;2023-04-24T07:38:54;10.13;;;8.07;;
8652;SDS011;4364;52.426;9.424;2023-04-24T07:41:21;12.07;;;8.67;;
8652;SDS011;4364;52.426;9.424;2023-04-24T07:43:50;13.97;;;9.47;;
8652;SDS011;4364;52.426;9.424;2023-04-24T07:46:17;10.97;;;8.57;;
8652;SDS011;4364;52.426;9.424;2023-04-24T07:48:43;10.30;;;8.87;;
8652;SDS011;4364;52.426;9.424;2023-04-24T07:51:10;12.17;;;8.87;;
8652;SDS011;4364;52.426;9.424;2023-04-24T07:53:38;10.77;;;9.33;;
8652;SDS011;4364;52.426;9.424;2023-04-24T07:56:04;11.77;;;9.27;;
8652;SDS011;4364;52.426;9.424;2023-04-24T07:58:31;11.87;;;9.70;;
8652;SDS011;4364;52.426;9.424;2023-04-24T08:00:57;12.20;;;9.57;;
8652;SDS011;4364;52.426;9.424;2023-04-24T08:03:24;12.73;;;10.00;;
8652;SDS011;4364;52.426;9.424;2023-04-24T08:05:51;13.87;;;10.70;;
8652;SDS011;4364;52.426;9.424;2023-04-24T08:08:19;11.97;;;10.03;;
8652;SDS011;4364;52.426;9.424;2023-04-24T08:10:47;12.97;;;10.47;;
8652;SDS011;4364;52.426;9.424;2023-04-24T08:13:14;13.63;;;10.43;;
8652;SDS011;4364;52.426;9.424;2023-04-24T08:15:40;14.10;;;10.33;;
8652;SDS011;4364;52.426;9.424;2023-04-24T08:18:07;12.80;;;10.57;;
8652;SDS011;4364;52.426;9.424;2023-04-24T08:20:33;12.47;;;10.50;;
8652;SDS011;4364;52.426;9.424;2023-04-24T08:23:01;14.30;;;11.17;;
8652;SDS011;4364;52.426;9.424;2023-04-24T08:25:27;14.63;;;11.53;;
8652;SDS011;4364;52.426;9.424;2023-04-24T08:27:54;13.57;;;11.10;;
8652;SDS011;4364;52.426;9.424;2023-04-24T08:30:20;12.53;;;10.53;;
8652;SDS011;4364;52.426;9.424;2023-04-24T08:32:47;13.67;;;10.00;;
8652;SDS011;4364;52.426;9.424;2023-04-24T08:35:14;13.73;;;10.07;;
8652;SDS011;4364;52.426;9.424;2023-04-24T08:37:40;13.73;;;10.63;;
8652;SDS011;4364;52.426;9.424;2023-04-24T08:40:11;14.73;;;10.77;;
8652;SDS011;4364;52.426;9.424;2023-04-24T08:42:43;11.10;;;9.80;;
8652;SDS011;4364;52.426;9.424;2023-04-24T08:45:11;26.47;;;16.43;;
8652;SDS011;4364;52.426;9.424;2023-04-24T08:47:39;11.87;;;9.97;;
8652;SDS011;4364;52.426;9.424;2023-04-24T08:50:07;12.50;;;9.63;;
8652;SDS011;4364;52.426;9.424;2023-04-24T08:52:35;12.27;;;9.50;;
8652;SDS011;4364;52.426;9.424;2023-04-24T08:55:03;12.47;;;9.10;;
8652;SDS011;4364;52.426;9.424;2023-04-24T08:57:29;14.40;;;9.53;;
8652;SDS011;4364;52.426;9.424;2023-04-24T08:59:58;10.37;;;9.03;;
8652;SDS011;4364;52.426;9.424;2023-04-24T09:02:26;9.90;;;8.53;;
8652;SDS011;4364;52.426;9.424;2023-04-24T09:04:53;11.00;;;8.13;;
8652;SDS011;4364;52.426;9.424;2023-04-24T09:07:22;9.47;;;7.73;;
8652;SDS011;4364;52.426;9.424;2023-04-24T09:09:54;8.83;;;7.20;;
8652;SDS011;4364;52.426;9.424;2023-04-24T09:12:21;8.00;;;7.00;;
8652;SDS011;4364;52.426;9.424;2023-04-24T09:14:48;7.80;;;7.00;;
8652;SDS011;4364;52.426;9.424;2023-04-24T09:17:16;12.40;;;7.23;;
8652;SDS011;4364;52.426;9.424;2023-04-24T09:19:42;8.50;;;6.53;;
8652;SDS011;4364;52.426;9.424;2023-04-24T09:22:09;7.03;;;6.33;;
8652;SDS011;4364;52.426;9.424;2023-04-24T09:24:35;8.40;;;6.97;;
8652;SDS011;4364;52.426;9.424;2023-04-24T09:27:02;7.43;;;6.23;;
8652;SDS011;4364;52.426;9.424;2023-04-24T09:29:30;8.27;;;6.40;;
8652;SDS011;4364;52.426;9.424;2023-04-24T09:31:58;7.57;;;6.17;;
8652;SDS011;4364;52.426;9.424;2023-04-24T09:34:25;8.63;;;6.30;;
8652;SDS011;4364;52.426;9.424;2023-04-24T09:36:53;7.90;;;6.27;;
8652;SDS011;4364;52.426;9.424;2023-04-24T09:39:20;6.90;;;5.73;;
8652;SDS011;4364;52.426;9.424;2023-04-24T09:41:48;6.27;;;5.63;;
8652;SDS011;4364;52.426;9.424;2023-04-24T09:44:19;7.47;;;5.33;;
8652;SDS011;4364;52.426;9.424;2023-04-24T09:46:51;6.20;;;5.60;;
8652;SDS011;4364;52.426;9.424;2023-04-24T09:51:50;7.30;;;6.47;;
8652;SDS011;4364;52.426;9.424;2023-04-24T09:54:18;6.03;;;5.43;;
8652;SDS011;4364;52.426;9.424;2023-04-24T09:56:48;5.73;;;5.13;;
8652;SDS011;4364;52.426;9.424;2023-04-24T09:59:16;6.93;;;5.67;;
8652;SDS011;4364;52.426;9.424;2023-04-24T10:01:45;7.63;;;5.77;;
8652;SDS011;4364;52.426;9.424;2023-04-24T10:04:15;6.67;;;5.70;;
8652;SDS011;4364;52.426;9.424;2023-04-24T10:06:43;6.47;;;5.87;;
8652;SDS011;4364;52.426;9.424;2023-04-24T10:09:11;5.77;;;4.50;;
8652;SDS011;4364;52.426;9.424;2023-04-24T10:11:42;4.93;;;4.43;;
8652;SDS011;4364;52.426;9.424;2023-04-24T10:14:20;5.60;;;5.00;;
8652;SDS011;4364;52.426;9.424;2023-04-24T10:16:48;5.13;;;3.93;;
8652;SDS011;4364;52.426;9.424;2023-04-24T10:19:15;4.30;;;3.90;;
8652;SDS011;4364;52.426;9.424;2023-04-24T10:21:43;4.37;;;3.80;;
8652;SDS011;4364;52.426;9.424;2023-04-24T10:24:16;4.37;;;3.93;;
8652;SDS011;4364;52.426;9.424;2023-04-24T10:26:45;3.87;;;3.47;;
8652;SDS011;4364;52.426;9.424;2023-04-24T10:29:19;3.83;;;3.37;;
8652;SDS011;4364;52.426;9.424;2023-04-24T10:31:45;4.37;;;3.20;;
8652;SDS011;4364;52.426;9.424;2023-04-24T10:34:14;3.50;;;3.20;;
8652;SDS011;4364;52.426;9.424;2023-04-24T10:36:43;3.33;;;2.90;;
8652;SDS011;4364;52.426;9.424;2023-04-24T10:39:14;3.40;;;3.10;;
8652;SDS011;4364;52.426;9.424;2023-04-24T10:41:42;5.50;;;3.30;;
8652;SDS011;4364;52.426;9.424;2023-04-24T10:44:10;3.30;;;2.77;;
8652;SDS011;4364;52.426;9.424;2023-04-24T10:46:39;3.27;;;2.60;;
8652;SDS011;4364;52.426;9.424;2023-04-24T10:49:11;3.20;;;2.90;;
8652;SDS011;4364;52.426;9.424;2023-04-24T10:56:49;4.00;;;2.73;;
8652;SDS011;4364;52.426;9.424;2023-04-24T10:59:26;2.80;;;2.60;;
8652;SDS011;4364;52.426;9.424;2023-04-24T11:02:01;3.37;;;2.73;;
8652;SDS011;4364;52.426;9.424;2023-04-24T11:04:31;4.33;;;3.03;;
8652;SDS011;4364;52.426;9.424;2023-04-24T11:06:59;3.47;;;3.00;;
8652;SDS011;4364;52.426;9.424;2023-04-24T11:09:27;3.33;;;3.03;;
8652;SDS011;4364;52.426;9.424;2023-04-24T11:12:11;3.60;;;2.70;;
8652;SDS011;4364;52.426;9.424;2023-04-24T11:17:33;3.33;;;2.87;;
8652;SDS011;4364;52.426;9.424;2023-04-24T11:20:02;3.87;;;2.80;;
8652;SDS011;4364;52.426;9.424;2023-04-24T11:22:52;3.80;;;2.83;;
8652;SDS011;4364;52.426;9.424;2023-04-24T11:25:24;3.97;;;3.33;;
8652;SDS011;4364;52.426;9.424;2023-04-24T11:27:51;3.53;;;3.10;;
8652;SDS011;4364;52.426;9.424;2023-04-24T11:30:29;3.27;;;2.97;;
8652;SDS011;4364;52.426;9.424;2023-04-24T11:33:01;4.07;;;2.90;;
8652;SDS011;4364;52.426;9.424;2023-04-24T11:35:29;3.00;;;2.80;;
8652;SDS011;4364;52.426;9.424;2023-04-24T11:38:04;2.87;;;2.40;;
8652;SDS011;4364;52.426;9.424;2023-04-24T11:40:50;3.73;;;3.10;;
8652;SDS011;4364;52.426;9.424;2023-04-24T11:43:18;3.70;;;3.40;;
8652;SDS011;4364;52.426;9.424;2023-04-24T11:45:48;3.77;;;3.47;;
8652;SDS011;4364;52.426;9.424;2023-04-24T11:48:19;3.00;;;2.73;;
8652;SDS011;4364;52.426;9.424;2023-04-24T11:50:48;2.63;;;2.43;;
8652;SDS011;4364;52.426;9.424;2023-04-24T11:53:14;2.77;;;2.57;;
8652;SDS011;4364;52.426;9.424;2023-04-24T11:55:41;2.50;;;2.30;;
8652;SDS011;4364;52.426;9.424;2023-04-24T11:58:07;2.77;;;2.47;;
8652;SDS011;4364;52.426;9.424;2023-04-24T12:00:34;2.40;;;2.07;;
8652;SDS011;4364;52.426;9.424;2023-04-24T12:03:08;2.80;;;2.10;;
8652;SDS011;4364;52.426;9.424;2023-04-24T12:05:36;2.30;;;2.10;;
8652;SDS011;4364;52.426;9.424;2023-04-24T12:08:04;2.00;;;1.80;;
8652;SDS011;4364;52.426;9.424;2023-04-24T12:10:31;1.90;;;1.80;;
8652;SDS011;4364;52.426;9.424;2023-04-24T12:12:59;2.37;;;1.57;;
8652;SDS011;4364;52.426;9.424;2023-04-24T12:15:26;2.10;;;1.90;;
8652;SDS011;4364;52.426;9.424;2023-04-24T12:17:54;1.77;;;1.63;;
8652;SDS011;4364;52.426;9.424;2023-04-24T12:20:26;3.20;;;2.03;;
8652;SDS011;4364;52.426;9.424;2023-04-24T12:22:55;3.63;;;2.30;;
8652;SDS011;4364;52.426;9.424;2023-04-24T12:25:24;2.63;;;2.43;;
8652;SDS011;4364;52.426;9.424;2023-04-24T12:30:35;4.67;;;3.60;;
8652;SDS011;4364;52.426;9.424;2023-04-24T12:33:05;9.17;;;5.87;;
8652;SDS011;4364;52.426;9.424;2023-04-24T12:35:32;6.60;;;4.97;;
8652;SDS011;4364;52.426;9.424;2023-04-24T12:38:13;4.17;;;3.77;;
8652;SDS011;4364;52.426;9.424;2023-04-24T12:40:41;5.03;;;4.37;;
8652;SDS011;4364;52.426;9.424;2023-04-24T12:43:15;7.20;;;4.50;;
8652;SDS011;4364;52.426;9.424;2023-04-24T12:45:43;5.93;;;5.30;;
8652;SDS011;4364;52.426;9.424;2023-04-24T12:48:11;5.50;;;5.00;;
8652;SDS011;4364;52.426;9.424;2023-04-24T12:50:38;4.87;;;4.40;;
8652;SDS011;4364;52.426;9.424;2023-04-24T12:53:05;4.70;;;4.30;;
8652;SDS011;4364;52.426;9.424;2023-04-24T12:55:32;4.70;;;4.30;;
8652;SDS011;4364;52.426;9.424;2023-04-24T12:57:59;4.70;;;4.13;;
8652;SDS011;4364;52.426;9.424;2023-04-24T13:00:26;5.23;;;4.80;;
8652;SDS011;4364;52.426;9.424;2023-04-24T13:02:52;4.90;;;4.40;;
8652;SDS011;4364;52.426;9.424;2023-04-24T13:05:19;4.20;;;3.80;;
8652;SDS011;4364;52.426;9.424;2023-04-24T13:07:48;4.87;;;4.43;;
8652;SDS011;4364;52.426;9.424;2023-04-24T13:10:15;4.53;;;4.03;;
8652;SDS011;4364;52.426;9.424;2023-04-24T13:12:41;4.10;;;3.70;;
8652;SDS011;4364;52.426;9.424;2023-04-24T13:15:11;7.33;;;5.33;;
8652;SDS011;4364;52.426;9.424;2023-04-24T13:17:38;4.70;;;4.10;;
8652;SDS011;4364;52.426;9.424;2023-04-24T13:20:05;3.70;;;3.40;;
8652;SDS011;4364;52.426;9.424;2023-04-24T13:22:32;3.70;;;2.90;;
8652;SDS011;4364;52.426;9.424;2023-04-24T13:24:59;2.63;;;2.30;;
8652;SDS011;4364;52.426;9.424;2023-04-24T13:27:26;2.10;;;1.90;;
8652;SDS011;4364;52.426;9.424;2023-04-24T13:29:52;3.30;;;2.03;;
8652;SDS011;4364;52.426;9.424;2023-04-24T13:32:19;2.60;;;1.90;;
8652;SDS011;4364;52.426;9.424;2023-04-24T13:34:46;2.17;;;1.97;;
8652;SDS011;4364;52.426;9.424;2023-04-24T13:37:12;2.47;;;2.27;;
8652;SDS011;4364;52.426;9.424;2023-04-24T13:39:40;3.13;;;1.90;;
8652;SDS011;4364;52.426;9.424;2023-04-24T13:42:08;2.53;;;2.00;;
8652;SDS011;4364;52.426;9.424;2023-04-24T13:44:34;2.33;;;1.93;;
8652;SDS011;4364;52.426;9.424;2023-04-24T13:47:01;2.53;;;1.60;;
8652;SDS011;4364;52.426;9.424;2023-04-24T13:49:27;2.83;;;2.30;;
8652;SDS011;4364;52.426;9.424;2023-04-24T13:51:54;3.20;;;2.27;;
8652;SDS011;4364;52.426;9.424;2023-04-24T13:54:21;3.73;;;2.53;;
8652;SDS011;4364;52.426;9.424;2023-04-24T13:56:49;3.90;;;3.00;;
8652;SDS011;4364;52.426;9.424;2023-04-24T13:59:18;3.50;;;2.73;;
8652;SDS011;4364;52.426;9.424;2023-04-24T14:01:46;3.97;;;3.00;;
8652;SDS011;4364;52.426;9.424;2023-04-24T14:04:14;3.73;;;2.90;;
8652;SDS011;4364;52.426;9.424;2023-04-24T14:06:40;4.73;;;3.50;;
8652;SDS011;4364;52.426;9.424;2023-04-24T14:09:07;7.13;;;4.17;;
8652;SDS011;4364;52.426;9.424;2023-04-24T14:11:34;4.50;;;3.70;;
8652;SDS011;4364;52.426;9.424;2023-04-24T14:14:01;5.23;;;4.30;;
8652;SDS011;4364;52.426;9.424;2023-04-24T14:16:28;6.40;;;4.23;;
8652;SDS011;4364;52.426;9.424;2023-04-24T14:18:54;5.57;;;4.43;;
8652;SDS011;4364;52.426;9.424;2023-04-24T14:21:22;7.57;;;4.87;;
8652;SDS011;4364;52.426;9.424;2023-04-24T14:23:48;5.73;;;4.07;;
8652;SDS011;4364;52.426;9.424;2023-04-24T14:26:15;6.87;;;4.33;;
8652;SDS011;4364;52.426;9.424;2023-04-24T14:28:41;5.50;;;4.10;;
8652;SDS011;4364;52.426;9.424;2023-04-24T14:31:08;5.00;;;4.10;;
8652;SDS011;4364;52.426;9.424;2023-04-24T14:33:35;4.83;;;4.00;;
8652;SDS011;4364;52.426;9.424;2023-04-24T14:36:01;7.03;;;4.30;;
8652;SDS011;4364;52.426;9.424;2023-04-24T14:38:29;6.53;;;3.93;;
8652;SDS011;4364;52.426;9.424;2023-04-24T14:40:56;7.63;;;4.37;;
8652;SDS011;4364;52.426;9.424;2023-04-24T14:43:33;7.63;;;4.80;;
8652;SDS011;4364;52.426;9.424;2023-04-24T14:46:01;9.97;;;4.30;;
8652;SDS011;4364;52.426;9.424;2023-04-24T14:48:28;6.53;;;4.10;;
8652;SDS011;4364;52.426;9.424;2023-04-24T14:50:55;7.60;;;4.40;;
8652;SDS011;4364;52.426;9.424;2023-04-24T14:53:21;9.07;;;5.13;;
8652;SDS011;4364;52.426;9.424;2023-04-24T14:55:48;7.27;;;4.70;;
8652;SDS011;4364;52.426;9.424;2023-04-24T14:58:14;8.90;;;4.90;;
8652;SDS011;4364;52.426;9.424;2023-04-24T15:00:41;7.27;;;5.10;;
8652;SDS011;4364;52.426;9.424;2023-04-24T15:03:07;10.73;;;5.43;;
8652;SDS011;4364;52.426;9.424;2023-04-24T15:05:35;7.80;;;4.90;;
8652;SDS011;4364;52.426;9.424;2023-04-24T15:08:02;7.90;;;5.10;;
8652;SDS011;4364;52.426;9.424;2023-04-24T15:10:28;9.17;;;4.80;;
8652;SDS011;4364;52.426;9.424;2023-04-24T15:12:55;10.50;;;6.00;;
8652;SDS011;4364;52.426;9.424;2023-04-24T15:15:22;7.73;;;4.80;;
8652;SDS011;4364;52.426;9.424;2023-04-24T15:17:49;9.07;;;5.50;;
8652;SDS011;4364;52.426;9.424;2023-04-24T15:20:15;14.53;;;10.23;;
8652;SDS011;4364;52.426;9.424;2023-04-24T15:22:42;9.43;;;6.47;;
8652;SDS011;4364;52.426;9.424;2023-04-24T15:25:09;9.80;;;5.77;;
8652;SDS011;4364;52.426;9.424;2023-04-24T15:27:40;10.63;;;6.10;;
8652;SDS011;4364;52.426;9.424;2023-04-24T15:30:07;11.03;;;5.67;;
8652;SDS011;4364;52.426;9.424;2023-04-24T15:32:35;11.33;;;6.23;;